createdAt,value
2017-08-05T00:02:15.197Z,70.40
2017-08-05T00:04:41.278Z,70.70
2017-08-05T00:07:07.378Z,70.80
2017-08-05T00:09:33.487Z,70.70
2017-08-05T00:11:59.563Z,70.90
2017-08-05T00:14:26.370Z,70.90
2017-08-05T00:16:52.455Z,70.80
2017-08-05T00:19:18.519Z,70.80
2017-08-05T00:21:44.607Z,71.10
2017-08-05T00:24:10.687Z,71.20
2017-08-05T00:26:36.868Z,71.30
2017-08-05T00:29:02.930Z,71.50
2017-08-05T00:31:29.120Z,71.60
2017-08-05T00:33:55.175Z,72.00
2017-08-05T00:36:21.262Z,72.00
2017-08-05T00:38:47.579Z,72.20
2017-08-05T00:41:14.394Z,72.60
2017-08-05T00:43:40.449Z,72.50
2017-08-05T00:46:06.577Z,72.60
2017-08-05T00:48:32.667Z,72.60
2017-08-05T00:50:58.770Z,72.90
2017-08-05T00:53:24.826Z,73.00
2017-08-05T00:55:50.876Z,73.10
2017-08-05T00:58:16.959Z,73.10
2017-08-05T01:00:43.027Z,73.10
2017-08-05T01:03:09.100Z,73.00
2017-08-05T01:05:35.183Z,72.90
2017-08-05T01:08:01.267Z,72.90
2017-08-05T01:10:27.349Z,72.60
2017-08-05T01:12:53.422Z,72.70
2017-08-05T01:15:19.475Z,72.80
2017-08-05T01:17:45.555Z,72.90
2017-08-05T01:20:11.607Z,73.10
2017-08-05T01:22:37.682Z,73.20
2017-08-05T01:25:03.756Z,72.80
2017-08-05T01:27:29.850Z,72.90
2017-08-05T01:29:55.914Z,72.70
2017-08-05T01:32:22.022Z,72.40
2017-08-05T01:34:48.827Z,72.40
2017-08-05T01:37:14.916Z,72.40
2017-08-05T01:39:40.981Z,72.40
2017-08-05T01:42:07.072Z,72.20
2017-08-05T01:44:33.154Z,72.20
2017-08-05T01:46:59.255Z,72.10
2017-08-05T01:49:25.334Z,72.00
2017-08-05T01:51:51.438Z,72.00
2017-08-05T01:54:17.515Z,71.70
2017-08-05T01:56:43.598Z,71.80
2017-08-05T01:59:09.674Z,71.90
2017-08-05T02:01:35.782Z,72.20
2017-08-05T02:04:01.875Z,72.30
2017-08-05T02:06:27.963Z,72.40
2017-08-05T02:08:54.067Z,72.30
2017-08-05T02:11:20.180Z,72.30
2017-08-05T02:13:46.243Z,72.20
2017-08-05T02:16:12.317Z,72.40
2017-08-05T02:18:38.430Z,72.80
2017-08-05T02:21:04.493Z,73.10
2017-08-05T02:23:30.547Z,73.50
2017-08-05T02:25:56.730Z,73.60
2017-08-05T02:28:22.776Z,73.60
2017-08-05T02:30:48.861Z,73.70
2017-08-05T02:33:14.920Z,73.90
2017-08-05T02:35:41.023Z,73.80
2017-08-05T02:38:07.083Z,74.00
2017-08-05T02:40:33.179Z,74.40
2017-08-05T02:42:59.294Z,74.80
2017-08-05T02:45:25.367Z,74.70
2017-08-05T02:47:51.531Z,74.70
2017-08-05T02:50:17.604Z,75.30
2017-08-05T02:52:43.672Z,76.30
2017-08-05T02:55:09.738Z,76.80
2017-08-05T02:57:35.795Z,76.80
2017-08-05T03:00:02.001Z,77.20
2017-08-05T03:02:28.090Z,77.40
2017-08-05T03:04:54.175Z,77.40
2017-08-05T03:07:20.346Z,77.50
2017-08-05T03:09:46.467Z,77.60
2017-08-05T03:12:12.586Z,77.90
2017-08-05T03:14:38.671Z,78.10
2017-08-05T03:17:04.749Z,78.30
2017-08-05T03:19:30.835Z,78.20
2017-08-05T03:21:56.930Z,78.10
2017-08-05T03:24:23.032Z,78.00
2017-08-05T03:26:49.121Z,78.10
2017-08-05T03:29:15.943Z,78.70
2017-08-05T03:31:42.003Z,78.50
2017-08-05T03:34:08.091Z,78.70
2017-08-05T03:36:34.302Z,78.80
2017-08-05T03:39:00.363Z,78.80
2017-08-05T03:41:27.200Z,78.40
2017-08-05T03:43:53.390Z,78.40
2017-08-05T03:46:19.474Z,78.90
2017-08-05T03:48:45.582Z,78.70
2017-08-05T03:51:12.383Z,78.80
2017-08-05T03:53:38.433Z,78.70
2017-08-05T03:56:04.621Z,78.70
2017-08-05T03:58:30.681Z,78.60
2017-08-05T04:00:56.763Z,78.30
2017-08-05T04:03:22.900Z,78.00
2017-08-05T04:05:48.965Z,77.80
2017-08-05T04:08:15.030Z,77.70
2017-08-05T04:10:41.141Z,77.50
2017-08-05T04:13:07.218Z,77.40
2017-08-05T04:15:33.304Z,77.60
2017-08-05T04:17:59.355Z,77.50
2017-08-05T04:20:25.482Z,77.60
2017-08-05T04:22:51.554Z,77.50
2017-08-05T04:25:17.638Z,77.50
2017-08-05T04:27:43.705Z,77.40
2017-08-05T04:30:10.521Z,77.00
2017-08-05T04:32:36.575Z,77.00
2017-08-05T04:35:02.658Z,77.00
2017-08-05T04:37:28.735Z,76.90
2017-08-05T04:39:54.819Z,76.60
2017-08-05T04:42:20.909Z,76.50
2017-08-05T04:44:46.963Z,76.30
2017-08-05T04:47:13.039Z,76.20
2017-08-05T04:49:39.155Z,76.70
2017-08-05T04:52:05.235Z,75.70
2017-08-05T04:54:31.323Z,75.70
2017-08-05T04:56:57.406Z,75.60
2017-08-05T04:59:23.479Z,75.10
2017-08-05T05:01:49.562Z,75.10
2017-08-05T05:04:16.353Z,74.20
2017-08-05T05:06:42.475Z,74.20
2017-08-05T05:09:08.538Z,73.60
2017-08-05T05:11:34.624Z,73.40
2017-08-05T05:14:00.698Z,73.10
2017-08-05T05:16:26.823Z,72.90
2017-08-05T05:18:53.640Z,73.60
2017-08-05T05:21:19.702Z,72.70
2017-08-05T05:23:46.538Z,72.20
2017-08-05T05:26:12.615Z,72.20
2017-08-05T05:28:38.724Z,71.70
2017-08-05T05:31:04.794Z,72.00
2017-08-05T05:33:30.851Z,71.70
2017-08-05T05:35:56.930Z,71.60
2017-08-05T05:38:23.011Z,71.70
2017-08-05T05:40:49.062Z,71.70
2017-08-05T05:43:15.147Z,71.40
2017-08-05T05:45:41.974Z,71.10
2017-08-05T05:48:08.051Z,71.10
2017-08-05T05:50:34.124Z,71.00
2017-08-05T05:53:00.987Z,70.90
2017-08-05T05:55:27.038Z,70.90
2017-08-05T05:57:53.170Z,70.70
2017-08-05T06:00:19.315Z,71.20
2017-08-05T06:02:45.352Z,71.20
2017-08-05T06:05:11.427Z,69.60
2017-08-05T06:07:37.503Z,68.20
2017-08-05T06:10:03.591Z,68.60
2017-08-05T06:12:29.670Z,69.10
2017-08-05T06:14:56.464Z,68.70
2017-08-05T06:17:22.539Z,68.60
2017-08-05T06:19:49.402Z,68.40
2017-08-05T06:22:15.487Z,68.30
2017-08-05T06:24:41.552Z,67.90
2017-08-05T06:27:07.618Z,68.20
2017-08-05T06:29:33.702Z,67.80
2017-08-05T06:31:59.798Z,67.50
2017-08-05T06:34:26.634Z,67.40
2017-08-05T06:36:52.923Z,67.00
2017-08-05T06:39:19.282Z,66.90
2017-08-05T06:41:45.354Z,66.40
2017-08-05T06:44:11.415Z,66.00
2017-08-05T06:46:38.455Z,66.40
2017-08-05T06:49:04.514Z,66.20
2017-08-05T06:51:30.616Z,66.00
2017-08-05T06:53:56.700Z,65.10
2017-08-05T06:56:22.775Z,65.30
2017-08-05T06:58:48.831Z,64.10
2017-08-05T07:01:14.911Z,64.80
2017-08-05T07:03:41.037Z,63.90
2017-08-05T07:06:07.106Z,63.30
2017-08-05T07:08:33.163Z,63.40
2017-08-05T07:10:59.262Z,63.50
2017-08-05T07:13:26.168Z,63.30
2017-08-05T07:15:52.274Z,63.90
2017-08-05T07:18:18.342Z,63.30
2017-08-05T07:20:45.151Z,63.20
2017-08-05T07:23:11.229Z,63.20
2017-08-05T07:25:37.313Z,63.00
2017-08-05T07:28:03.383Z,62.00
2017-08-05T07:30:29.443Z,63.10
2017-08-05T07:32:55.515Z,62.30
2017-08-05T07:35:22.315Z,62.00
2017-08-05T07:37:48.407Z,62.00
2017-08-05T07:40:14.455Z,61.90
2017-08-05T07:42:40.550Z,62.30
2017-08-05T07:45:06.631Z,62.40
2017-08-05T07:47:33.550Z,62.10
2017-08-05T07:49:59.605Z,62.10
2017-08-05T07:52:25.720Z,60.70
2017-08-05T07:54:51.843Z,61.10
2017-08-05T07:57:17.920Z,61.10
2017-08-05T07:59:44.003Z,61.60
2017-08-05T08:02:10.051Z,61.40
2017-08-05T08:04:36.191Z,61.30
2017-08-05T08:07:02.239Z,61.20
2017-08-05T08:09:28.314Z,61.80
2017-08-05T08:11:54.431Z,62.20
2017-08-05T08:14:20.572Z,62.70
2017-08-05T08:16:47.379Z,62.60
2017-08-05T08:19:13.470Z,62.70
2017-08-05T08:21:39.555Z,62.90
2017-08-05T08:24:05.623Z,62.50
2017-08-05T08:26:31.687Z,62.80
2017-08-05T08:28:57.786Z,62.50
2017-08-05T08:31:23.944Z,61.80
2017-08-05T08:33:50.007Z,61.60
2017-08-05T08:36:16.081Z,62.10
2017-08-05T08:38:42.144Z,61.20
2017-08-05T08:41:08.978Z,61.70
2017-08-05T08:43:35.042Z,61.70
2017-08-05T08:46:01.210Z,61.80
2017-08-05T08:48:27.275Z,61.90
2017-08-05T08:50:53.372Z,61.00
2017-08-05T08:53:19.421Z,61.80
2017-08-05T08:55:45.534Z,62.40
2017-08-05T08:58:12.922Z,62.70
2017-08-05T09:00:39.006Z,63.50
2017-08-05T09:03:05.083Z,64.30
2017-08-05T09:05:31.158Z,65.30
2017-08-05T09:07:57.958Z,65.60
2017-08-05T09:10:24.055Z,65.60
2017-08-05T09:12:50.155Z,65.80
2017-08-05T09:15:16.257Z,65.80
2017-08-05T09:17:42.400Z,65.60
2017-08-05T09:20:09.251Z,65.10
2017-08-05T09:22:35.304Z,64.90
2017-08-05T09:25:01.382Z,65.80
2017-08-05T09:27:27.437Z,65.50
2017-08-05T09:29:53.534Z,65.80
2017-08-05T09:32:19.587Z,66.00
2017-08-05T09:34:45.653Z,67.60
2017-08-05T09:37:11.744Z,67.20
2017-08-05T09:39:37.838Z,67.60
2017-08-05T09:42:04.666Z,69.90
2017-08-05T09:44:30.725Z,69.90
2017-08-05T09:46:56.823Z,70.00
2017-08-05T09:49:22.891Z,72.70
2017-08-05T09:51:48.985Z,72.90
2017-08-05T09:54:15.836Z,73.50
2017-08-05T09:56:41.934Z,73.60
2017-08-05T09:59:08.002Z,75.50
2017-08-05T10:01:34.099Z,74.20
2017-08-05T10:04:00.910Z,76.50
2017-08-05T10:06:26.990Z,76.40
2017-08-05T10:08:53.050Z,75.60
2017-08-05T10:11:19.151Z,75.30
2017-08-05T10:13:45.219Z,74.70
2017-08-05T10:16:11.359Z,76.00
2017-08-05T10:18:38.176Z,78.10
2017-08-05T10:21:04.291Z,78.00
2017-08-05T10:23:30.354Z,77.10
2017-08-05T10:25:57.166Z,77.50
2017-08-05T10:28:23.295Z,77.50
2017-08-05T10:30:49.371Z,79.00
2017-08-05T10:33:15.466Z,79.30
2017-08-05T10:35:41.543Z,79.80
2017-08-05T10:38:07.629Z,79.40
2017-08-05T10:40:34.443Z,78.10
2017-08-05T10:43:00.526Z,78.10
2017-08-05T10:45:26.622Z,79.90
2017-08-05T10:47:53.442Z,79.50
2017-08-05T10:50:19.516Z,79.50
2017-08-05T10:52:45.604Z,80.00
2017-08-05T10:55:11.682Z,79.80
2017-08-05T10:57:37.767Z,78.70
2017-08-05T11:00:03.812Z,76.90
2017-08-05T11:02:29.858Z,77.60
2017-08-05T11:04:55.874Z,77.10
2017-08-05T11:07:21.912Z,76.40
2017-08-05T11:09:47.969Z,75.70
2017-08-05T11:12:14.021Z,76.00
2017-08-05T11:14:40.057Z,75.70
2017-08-05T11:17:06.090Z,76.80
2017-08-05T11:19:32.137Z,76.60
2017-08-05T11:21:58.165Z,76.80
2017-08-05T11:24:24.211Z,76.00
2017-08-05T11:26:50.993Z,72.40
2017-08-05T11:29:17.055Z,72.20
2017-08-05T11:31:43.818Z,69.40
2017-08-05T11:34:09.862Z,69.30
2017-08-05T11:36:35.892Z,71.70
2017-08-05T11:39:02.681Z,71.10
2017-08-05T11:41:28.713Z,70.90
2017-08-05T11:43:54.749Z,71.60
2017-08-05T11:46:21.521Z,69.50
2017-08-05T11:48:47.563Z,69.50
2017-08-05T11:51:13.603Z,71.40
2017-08-05T11:53:39.648Z,71.20
2017-08-05T11:56:05.661Z,70.50
2017-08-05T11:58:31.702Z,71.30
2017-08-05T12:00:57.737Z,70.70
2017-08-05T12:03:24.534Z,71.70
2017-08-05T12:05:50.567Z,71.70
2017-08-05T12:08:17.365Z,69.30
2017-08-05T12:10:43.425Z,69.30
2017-08-05T12:13:09.469Z,69.70
2017-08-05T12:15:35.508Z,71.00
2017-08-05T12:18:01.566Z,71.10
2017-08-05T12:20:27.605Z,71.00
2017-08-05T12:22:53.677Z,69.40
2017-08-05T12:25:19.710Z,70.30
2017-08-05T12:27:45.740Z,65.00
2017-08-05T12:30:11.793Z,63.70
2017-08-05T12:32:37.808Z,64.80
2017-08-05T12:35:04.591Z,62.50
2017-08-05T12:37:30.617Z,62.10
2017-08-05T12:39:56.653Z,62.00
2017-08-05T12:42:22.677Z,61.40
2017-08-05T12:44:48.714Z,61.70
2017-08-05T12:47:14.732Z,62.20
2017-08-05T12:49:40.778Z,63.40
2017-08-05T12:52:06.811Z,63.30
2017-08-05T12:54:33.590Z,62.70
2017-08-05T12:56:59.609Z,62.80
2017-08-05T12:59:25.673Z,63.10
2017-08-05T13:01:51.693Z,63.10
2017-08-05T13:04:17.730Z,65.30
2017-08-05T13:06:43.806Z,63.30
2017-08-05T13:09:10.586Z,61.60
2017-08-05T13:11:36.626Z,61.60
2017-08-05T13:14:03.406Z,64.90
2017-08-05T13:16:29.427Z,64.90
2017-08-05T13:18:55.455Z,65.50
2017-08-05T13:21:21.491Z,64.50
2017-08-05T13:23:47.520Z,65.40
2017-08-05T13:26:13.571Z,65.00
2017-08-05T13:28:39.609Z,65.30
2017-08-05T13:31:05.686Z,64.80
2017-08-05T13:33:31.741Z,64.90
2017-08-05T13:35:57.777Z,65.80
2017-08-05T13:38:23.806Z,65.90
2017-08-05T13:40:49.848Z,68.00
2017-08-05T13:43:15.930Z,70.00
2017-08-05T13:45:42.010Z,69.60
2017-08-05T13:48:08.775Z,69.90
2017-08-05T13:50:34.806Z,70.00
2017-08-05T13:53:00.841Z,70.00
2017-08-05T13:55:26.885Z,70.40
2017-08-05T13:58:07.888Z,70.70
2017-08-05T14:00:33.926Z,72.20
2017-08-05T14:03:07.018Z,71.80
2017-08-05T14:05:33.044Z,71.90
2017-08-05T14:07:59.086Z,72.80
2017-08-05T14:10:25.138Z,74.40
2017-08-05T14:12:51.196Z,77.00
2017-08-05T14:15:17.220Z,72.70
2017-08-05T14:17:43.268Z,73.70
2017-08-05T14:20:10.045Z,76.50
2017-08-05T14:22:36.081Z,75.90
2017-08-05T14:25:02.210Z,73.20
2017-08-05T14:27:28.283Z,73.10
2017-08-05T14:29:54.332Z,75.00
2017-08-05T14:32:20.362Z,75.10
2017-08-05T14:34:47.137Z,73.00
2017-08-05T14:37:13.153Z,72.80
2017-08-05T14:39:46.133Z,74.30
2017-08-05T14:42:12.431Z,72.00
2017-08-05T14:44:38.489Z,73.50
2017-08-05T14:47:05.248Z,73.20
2017-08-05T14:49:31.301Z,73.20
2017-08-05T14:51:57.336Z,73.60
2017-08-05T14:54:24.127Z,76.60
2017-08-05T14:56:50.145Z,76.50
2017-08-05T14:59:16.197Z,74.20
2017-08-05T15:01:42.965Z,72.60
2017-08-05T15:04:09.008Z,72.30
2017-08-05T15:06:35.038Z,68.60
2017-08-05T15:09:01.834Z,63.00
2017-08-05T15:11:27.877Z,62.90
2017-08-05T15:13:54.666Z,60.20
2017-08-05T15:16:20.697Z,60.00
2017-08-05T15:18:46.791Z,63.70
2017-08-05T15:21:12.840Z,63.40
2017-08-05T15:23:39.625Z,64.10
2017-08-05T15:28:38.521Z,60.60
2017-08-05T15:31:04.552Z,58.30
2017-08-05T15:33:30.617Z,61.00
2017-08-05T15:35:56.633Z,58.80
2017-08-05T15:38:22.671Z,61.20
2017-08-05T15:40:48.726Z,58.90
2017-08-05T15:43:14.762Z,59.40
2017-08-05T15:45:40.797Z,56.50
2017-08-05T15:48:06.821Z,52.30
2017-08-05T15:50:32.885Z,52.60
2017-08-05T15:52:58.929Z,50.90
2017-08-05T15:55:24.990Z,52.20
2017-08-05T15:57:51.004Z,53.30
2017-08-05T16:00:17.053Z,52.30
2017-08-05T16:02:43.103Z,49.80
2017-08-05T16:05:09.145Z,49.20
2017-08-05T16:07:35.162Z,48.70
2017-08-05T16:10:01.264Z,47.50
2017-08-05T16:12:27.296Z,47.30
2017-08-05T16:14:53.320Z,46.70
2017-08-05T16:17:19.365Z,47.10
2017-08-05T16:19:46.144Z,47.50
2017-08-05T16:22:12.254Z,47.00
2017-08-05T16:24:38.265Z,46.50
2017-08-05T16:27:04.330Z,48.50
2017-08-05T16:29:30.353Z,48.40
2017-08-05T16:31:56.401Z,49.40
2017-08-05T16:34:22.421Z,47.90
2017-08-05T16:36:48.470Z,48.10
2017-08-05T16:39:15.245Z,52.20
2017-08-05T16:41:41.291Z,52.20
2017-08-05T16:44:07.317Z,54.30
2017-08-05T16:46:34.121Z,56.60
2017-08-05T16:49:00.152Z,56.40
2017-08-05T16:51:26.201Z,58.00
2017-08-05T16:53:52.237Z,59.30
2017-08-05T16:56:18.252Z,59.50
2017-08-05T16:58:44.299Z,60.40
2017-08-05T17:01:10.312Z,61.80
2017-08-05T17:03:37.093Z,64.90
2017-08-05T17:06:03.139Z,64.70
2017-08-05T17:08:29.177Z,67.30
2017-08-05T17:10:55.250Z,70.50
2017-08-05T17:13:21.302Z,72.00
2017-08-05T17:15:54.237Z,75.30
2017-08-05T17:18:20.300Z,78.10
2017-08-05T17:20:46.360Z,77.60
2017-08-05T17:23:12.603Z,78.40
2017-08-05T17:25:39.802Z,79.60
2017-08-05T17:28:05.849Z,79.60
2017-08-05T17:30:32.636Z,80.30
2017-08-05T17:32:59.089Z,80.30
2017-08-05T17:35:25.852Z,80.20
2017-08-05T17:37:51.922Z,80.20
2017-08-05T17:40:18.048Z,81.10
2017-08-05T17:45:17.070Z,80.40
2017-08-05T17:47:43.108Z,80.50
2017-08-05T17:50:09.157Z,80.10
2017-08-05T17:52:35.222Z,80.20
2017-08-05T17:55:01.274Z,79.80
2017-08-05T17:57:28.063Z,79.70
2017-08-05T17:59:54.087Z,79.70
2017-08-05T18:02:20.544Z,79.80
2017-08-05T18:04:46.585Z,79.40
2017-08-05T18:07:12.634Z,80.00
2017-08-05T18:09:38.681Z,80.00
2017-08-05T18:12:04.794Z,79.70
2017-08-05T18:14:30.849Z,79.50
2017-08-05T18:16:56.909Z,79.70
2017-08-05T18:19:22.953Z,79.20
2017-08-05T18:21:48.997Z,79.10
2017-08-05T18:24:15.071Z,79.30
2017-08-05T18:26:41.100Z,79.30
2017-08-05T18:29:07.977Z,79.70
2017-08-05T18:31:34.070Z,79.40
2017-08-05T18:34:00.125Z,80.20
2017-08-05T18:36:26.150Z,80.20
2017-08-05T18:38:52.202Z,80.70
2017-08-05T18:41:18.238Z,80.60
2017-08-05T18:43:44.286Z,81.10
2017-08-05T18:46:10.339Z,81.30
2017-08-05T18:48:36.405Z,81.10
2017-08-05T18:51:02.553Z,81.30
2017-08-05T18:53:28.617Z,81.70
2017-08-05T18:55:54.655Z,81.30
2017-08-05T18:58:20.709Z,81.00
2017-08-05T19:00:47.509Z,81.50
2017-08-05T19:03:13.563Z,81.40
2017-08-05T19:05:39.592Z,81.60
2017-08-05T19:08:05.649Z,81.00
2017-08-05T19:10:31.734Z,81.30
2017-08-05T19:12:57.793Z,81.30
2017-08-05T19:15:24.608Z,81.30
2017-08-05T19:17:51.462Z,80.70
2017-08-05T19:20:17.500Z,80.70
2017-08-05T19:22:43.554Z,80.80
2017-08-05T19:25:09.581Z,80.80
2017-08-05T19:27:36.373Z,80.90
2017-08-05T19:30:04.025Z,80.80
2017-08-05T19:32:30.119Z,80.60
2017-08-05T19:34:56.187Z,81.40
2017-08-05T19:37:22.971Z,80.90
2017-08-05T19:39:49.032Z,80.80
2017-08-05T19:42:15.098Z,80.00
2017-08-05T19:44:41.628Z,80.50
2017-08-05T19:47:07.722Z,81.00
2017-08-05T19:49:34.563Z,80.90
2017-08-05T19:52:00.609Z,80.80
2017-08-05T19:54:27.390Z,81.10
2017-08-05T19:56:53.450Z,81.10
2017-08-05T19:59:20.236Z,81.30
2017-08-05T20:01:46.273Z,81.20
2017-08-05T20:04:13.059Z,81.50
2017-08-05T20:06:40.676Z,81.40
2017-08-05T20:09:07.142Z,81.40
2017-08-05T20:11:33.219Z,81.50
2017-08-05T20:13:59.384Z,81.70
2017-08-05T20:16:25.471Z,81.60
2017-08-05T20:18:51.586Z,81.40
2017-08-05T20:21:17.681Z,81.60
2017-08-05T20:23:43.701Z,82.00
2017-08-05T20:26:09.741Z,82.20
2017-08-05T20:28:35.871Z,82.30
2017-08-05T20:31:01.932Z,82.20
2017-08-05T20:33:30.233Z,82.40
2017-08-05T20:35:56.313Z,82.50
2017-08-05T20:38:22.439Z,82.40
2017-08-05T20:40:48.526Z,82.50
2017-08-05T20:43:14.573Z,82.40
2017-08-05T20:45:40.600Z,82.50
2017-08-05T20:48:07.419Z,83.00
2017-08-05T20:50:34.276Z,82.80
2017-08-05T20:53:00.325Z,82.90
2017-08-05T20:55:26.357Z,83.00
2017-08-05T20:57:52.419Z,83.10
2017-08-05T21:00:18.477Z,83.00
2017-08-05T21:02:45.984Z,83.10
2017-08-05T21:05:12.039Z,83.10
2017-08-05T21:07:38.080Z,83.40
2017-08-05T21:10:04.144Z,83.40
2017-08-05T21:12:30.182Z,83.50
2017-08-05T21:14:56.968Z,83.70
2017-08-05T21:17:23.016Z,83.80
2017-08-05T21:19:49.069Z,84.00
2017-08-05T21:22:15.103Z,84.00
2017-08-05T21:24:41.153Z,84.10
2017-08-05T21:27:07.195Z,84.40
2017-08-05T21:29:33.223Z,84.50
2017-08-05T21:31:59.253Z,84.60
2017-08-05T21:34:25.302Z,84.80
2017-08-05T21:36:52.092Z,85.00
2017-08-05T21:39:18.109Z,85.00
2017-08-05T21:41:44.165Z,85.10
2017-08-05T21:44:10.196Z,85.30
2017-08-05T21:46:36.252Z,85.30
2017-08-05T21:51:35.166Z,85.50
2017-08-05T21:54:02.193Z,85.80
2017-08-05T21:56:28.973Z,85.70
2017-08-05T21:58:55.005Z,85.70
2017-08-05T22:01:21.060Z,85.80
2017-08-05T22:03:47.081Z,86.10
2017-08-05T22:06:13.117Z,86.20
2017-08-05T22:08:39.157Z,86.40
2017-08-05T22:11:05.242Z,86.60
2017-08-05T22:13:31.281Z,86.70
2017-08-05T22:15:57.329Z,86.80
2017-08-05T22:18:23.376Z,87.10
2017-08-05T22:20:49.420Z,87.10
2017-08-05T22:23:15.485Z,87.20
2017-08-05T22:25:41.508Z,87.50
2017-08-05T22:28:07.549Z,87.80
2017-08-05T22:30:33.570Z,87.90
2017-08-05T22:33:00.366Z,88.10
2017-08-05T22:35:26.413Z,87.90
2017-08-05T22:37:53.180Z,87.80
2017-08-05T22:40:19.240Z,87.80
2017-08-05T22:43:01.009Z,88.00
2017-08-05T22:45:27.054Z,87.90
2017-08-05T22:47:53.090Z,88.10
2017-08-05T22:50:19.138Z,87.90
2017-08-05T22:52:45.168Z,88.10
2017-08-05T22:55:11.937Z,88.30
2017-08-05T22:57:37.962Z,88.30
2017-08-05T23:00:04.005Z,88.60
2017-08-05T23:02:30.049Z,88.50
2017-08-05T23:04:56.107Z,88.90
2017-08-05T23:07:22.140Z,89.20
2017-08-05T23:09:48.225Z,89.30
2017-08-05T23:12:14.240Z,89.30
2017-08-05T23:14:40.293Z,89.40
2017-08-05T23:17:06.321Z,89.40
2017-08-05T23:19:32.358Z,89.50
2017-08-05T23:21:58.388Z,89.50
2017-08-05T23:24:24.429Z,89.50
2017-08-05T23:26:50.453Z,89.60
2017-08-05T23:29:16.498Z,89.40
2017-08-05T23:31:42.545Z,89.40
2017-08-05T23:34:08.583Z,89.20
2017-08-05T23:36:35.666Z,89.10
2017-08-05T23:39:01.724Z,89.10
2017-08-05T23:41:27.756Z,88.90
2017-08-05T23:43:53.817Z,89.00
2017-08-05T23:46:20.107Z,88.80
2017-08-05T23:48:46.134Z,88.80
2017-08-05T23:51:12.177Z,88.80
2017-08-05T23:53:38.956Z,88.90
2017-08-05T23:56:04.994Z,88.80
2017-08-05T23:58:31.029Z,88.70
